createdAt,value
2022-08-24T00:00:58.049Z,18.12
2022-08-24T00:04:59.766Z,17.69
2022-08-24T00:09:01.306Z,17.90
2022-08-24T00:13:02.902Z,17.63
2022-08-24T00:17:04.934Z,17.49
2022-08-24T00:21:08.126Z,17.47
2022-08-24T00:25:11.817Z,17.70
2022-08-24T00:29:17.431Z,17.74
2022-08-24T00:33:18.918Z,17.46
2022-08-24T00:37:20.468Z,17.61
2022-08-24T00:41:22.584Z,17.58
2022-08-24T00:45:27.229Z,17.47
2022-08-24T00:49:45.959Z,17.63
2022-08-24T00:53:53.005Z,17.56
2022-08-24T00:57:59.699Z,17.63
2022-08-24T01:02:15.267Z,17.75
2022-08-24T01:06:17.497Z,17.70
2022-08-24T01:10:25.823Z,17.46
2022-08-24T01:14:27.344Z,17.07
2022-08-24T01:18:47.550Z,17.36
2022-08-24T01:23:13.552Z,17.30
2022-08-24T01:27:15.593Z,17.11
2022-08-24T01:31:22.091Z,17.20
2022-08-24T01:35:24.325Z,17.12
2022-08-24T01:39:33.851Z,17.07
2022-08-24T01:43:37.397Z,17.12
2022-08-24T01:47:39.013Z,17.17
2022-08-24T01:51:42.330Z,17.11
2022-08-24T01:55:44.777Z,16.77
2022-08-24T01:59:46.252Z,16.89
2022-08-24T02:03:51.843Z,16.77
2022-08-24T02:07:53.619Z,16.78
2022-08-24T02:11:55.391Z,16.62
2022-08-24T02:15:57.436Z,16.55
2022-08-24T02:19:58.910Z,16.52
2022-08-24T02:24:00.363Z,16.48
2022-08-24T02:28:01.993Z,16.28
2022-08-24T02:32:04.702Z,16.43
2022-08-24T02:36:10.460Z,16.51
2022-08-24T02:40:28.154Z,16.62
2022-08-24T02:44:29.655Z,16.67
2022-08-24T02:48:31.114Z,16.67
2022-08-24T02:52:32.623Z,16.77
2022-08-24T02:56:34.070Z,16.46
2022-08-24T03:00:38.427Z,16.53
2022-08-24T03:04:40.872Z,16.84
2022-08-24T03:08:42.351Z,17.06
2022-08-24T03:12:50.416Z,17.34
2022-08-24T03:16:51.855Z,17.48
2022-08-24T03:20:54.843Z,17.55
2022-08-24T03:24:56.550Z,17.64
2022-08-24T03:28:59.041Z,17.42
2022-08-24T03:33:01.504Z,17.60
2022-08-24T03:37:02.997Z,17.46
2022-08-24T03:41:04.565Z,17.50
2022-08-24T03:45:06.985Z,17.64
2022-08-24T03:49:10.077Z,17.71
2022-08-24T03:53:11.735Z,17.65
2022-08-24T03:57:14.409Z,17.63
2022-08-24T04:01:17.666Z,17.61
2022-08-24T04:05:19.427Z,17.46
2022-08-24T04:09:20.892Z,17.58
2022-08-24T04:13:22.366Z,17.56
2022-08-24T04:17:23.839Z,17.17
2022-08-24T04:21:32.067Z,17.19
2022-08-24T04:25:45.220Z,17.28
2022-08-24T04:29:46.687Z,17.24
2022-08-24T04:33:53.893Z,17.10
2022-08-24T04:37:55.635Z,17.24
2022-08-24T04:41:57.548Z,17.28
2022-08-24T04:46:06.505Z,16.79
2022-08-24T04:50:08.385Z,16.84
2022-08-24T04:54:09.867Z,17.00
2022-08-24T04:58:13.461Z,16.96
2022-08-24T05:02:14.970Z,16.91
2022-08-24T05:06:18.757Z,16.82
2022-08-24T05:10:21.027Z,16.86
2022-08-24T05:14:25.667Z,16.67
2022-08-24T05:18:30.172Z,16.72
2022-08-24T05:22:31.794Z,16.78
2022-08-24T05:26:34.090Z,16.71
2022-08-24T05:30:40.594Z,16.98
2022-08-24T05:34:44.540Z,17.00
2022-08-24T05:38:47.867Z,16.89
2022-08-24T05:42:49.604Z,16.72
2022-08-24T05:46:51.377Z,17.10
2022-08-24T05:50:55.004Z,17.03
2022-08-24T05:54:59.148Z,17.13
2022-08-24T05:59:00.860Z,17.29
2022-08-24T06:03:02.473Z,17.22
2022-08-24T06:07:05.449Z,16.98
2022-08-24T06:11:06.995Z,17.32
2022-08-24T06:15:09.607Z,17.47
2022-08-24T06:19:13.867Z,17.74
2022-08-24T06:23:15.393Z,17.88
2022-08-24T06:27:23.514Z,17.94
2022-08-24T06:31:28.924Z,17.90
2022-08-24T06:35:44.847Z,18.22
2022-08-24T06:39:48.988Z,18.33
2022-08-24T06:43:57.184Z,18.09
2022-08-24T06:47:58.810Z,18.29
2022-08-24T06:52:00.361Z,18.43
2022-08-24T06:56:02.408Z,18.38
2022-08-24T07:00:05.006Z,18.82
2022-08-24T07:04:06.463Z,18.76
2022-08-24T07:08:08.144Z,18.46
2022-08-24T07:12:09.700Z,18.47
2022-08-24T07:16:11.242Z,18.98
2022-08-24T07:20:12.829Z,19.14
2022-08-24T07:24:14.395Z,19.31
2022-08-24T07:28:16.296Z,19.69
2022-08-24T07:32:18.172Z,19.88
2022-08-24T07:36:22.478Z,19.72
2022-08-24T07:40:26.949Z,19.84
2022-08-24T07:44:28.512Z,19.87
2022-08-24T07:48:32.022Z,19.90
2022-08-24T07:52:35.770Z,20.12
2022-08-24T07:56:37.216Z,20.18
2022-08-24T08:00:38.748Z,20.14
2022-08-24T08:04:41.476Z,20.37
2022-08-24T08:08:43.443Z,20.41
2022-08-24T08:12:50.237Z,20.34
2022-08-24T08:16:53.997Z,21.10
2022-08-24T08:20:55.588Z,21.27
2022-08-24T08:24:57.033Z,21.27
2022-08-24T08:28:58.472Z,21.18
2022-08-24T08:33:00.006Z,21.29
2022-08-24T08:37:03.569Z,21.71
2022-08-24T08:41:05.412Z,21.70
2022-08-24T08:45:35.352Z,21.74
2022-08-24T08:50:12.959Z,21.56
2022-08-24T08:54:30.357Z,21.44
2022-08-24T08:59:07.290Z,22.22
2022-08-24T09:03:17.356Z,22.44
2022-08-24T09:07:27.486Z,22.89
2022-08-24T09:11:41.529Z,23.66
2022-08-24T09:16:08.407Z,23.34
2022-08-24T09:20:56.087Z,23.53
2022-08-24T09:25:09.766Z,23.38
2022-08-24T09:29:13.926Z,23.27
2022-08-24T09:33:21.148Z,22.65
2022-08-24T09:37:56.196Z,22.62
2022-08-24T09:42:18.932Z,22.98
2022-08-24T09:46:43.210Z,23.23
2022-08-24T09:51:32.648Z,23.04
2022-08-24T09:55:37.274Z,23.08
2022-08-24T10:00:09.538Z,23.16
2022-08-24T10:04:36.648Z,23.66
2022-08-24T10:09:12.422Z,23.75
2022-08-24T10:13:43.253Z,22.77
2022-08-24T10:18:22.992Z,23.55
2022-08-24T10:22:49.271Z,23.71
2022-08-24T10:27:15.631Z,24.02
2022-08-24T10:31:31.822Z,23.28
2022-08-24T10:36:04.734Z,23.81
2022-08-24T10:40:10.302Z,23.50
2022-08-24T10:44:40.722Z,24.39
2022-08-24T10:48:53.576Z,24.33
2022-08-24T10:53:13.815Z,24.55
2022-08-24T10:57:26.555Z,23.95
2022-08-24T11:01:31.907Z,24.58
2022-08-24T11:05:42.074Z,24.74
2022-08-24T11:09:45.167Z,25.13
2022-08-24T11:13:59.166Z,25.02
2022-08-24T11:18:04.281Z,24.41
2022-08-24T11:22:21.469Z,24.50
2022-08-24T11:26:25.741Z,25.55
2022-08-24T11:30:29.527Z,26.07
2022-08-24T11:34:38.079Z,26.14
2022-08-24T11:38:39.504Z,25.51
2022-08-24T11:42:53.497Z,25.52
2022-08-24T11:47:03.649Z,25.96
2022-08-24T11:51:13.639Z,26.44
2022-08-24T11:55:24.577Z,27.04
2022-08-24T11:59:50.246Z,28.35
2022-08-24T12:04:29.435Z,27.50
2022-08-24T12:08:45.874Z,27.80
2022-08-24T12:13:09.360Z,27.19
2022-08-24T12:17:26.498Z,27.21
2022-08-24T12:21:34.409Z,26.90
2022-08-24T12:25:55.190Z,27.12
2022-08-24T12:30:12.309Z,26.73
2022-08-24T12:34:24.775Z,26.41
2022-08-24T12:38:33.375Z,27.63
2022-08-24T12:42:51.282Z,28.71
2022-08-24T12:46:54.480Z,29.29
2022-08-24T12:51:08.153Z,29.48
2022-08-24T12:55:35.626Z,27.38
2022-08-24T12:59:39.487Z,28.81
2022-08-24T13:03:43.825Z,29.20
2022-08-24T13:07:48.873Z,28.99
2022-08-24T13:11:50.317Z,29.19
2022-08-24T13:15:56.285Z,29.70
2022-08-24T13:20:20.026Z,29.95
2022-08-24T13:24:30.645Z,30.74
2022-08-24T13:28:48.542Z,30.63
2022-08-24T13:33:01.051Z,31.83
2022-08-24T13:37:14.212Z,29.28
2022-08-24T13:41:37.427Z,29.04
2022-08-24T13:45:42.661Z,28.29
2022-08-24T13:50:03.021Z,28.56
2022-08-24T13:54:23.940Z,28.10
2022-08-24T13:58:45.139Z,27.28
2022-08-24T14:03:18.721Z,27.65
2022-08-24T14:07:59.871Z,29.18
2022-08-24T14:12:07.313Z,29.96
2022-08-24T14:16:46.484Z,30.85
2022-08-24T14:20:54.099Z,30.59
2022-08-24T14:25:17.255Z,31.11
2022-08-24T14:29:18.642Z,32.14
2022-08-24T14:33:30.616Z,32.17
2022-08-24T14:38:05.058Z,31.06
2022-08-24T14:42:51.718Z,31.07
2022-08-24T14:47:02.339Z,29.94
2022-08-24T14:51:32.965Z,30.41
2022-08-24T14:55:53.291Z,30.15
2022-08-24T15:00:13.729Z,29.26
2022-08-24T15:04:37.841Z,28.78
2022-08-24T15:08:43.135Z,27.39
2022-08-24T15:12:51.571Z,27.23
2022-08-24T15:17:03.419Z,27.35
2022-08-24T15:21:26.729Z,27.54
2022-08-24T15:26:04.783Z,27.70
2022-08-24T15:30:20.642Z,27.26
2022-08-24T15:34:40.396Z,26.85
2022-08-24T15:38:42.406Z,26.16
2022-08-24T15:42:44.385Z,26.88
2022-08-24T15:47:00.581Z,27.65
2022-08-24T15:51:02.562Z,27.07
2022-08-24T15:55:06.460Z,27.11
2022-08-24T15:59:13.903Z,28.09
2022-08-24T16:03:48.660Z,27.91
2022-08-24T16:08:02.391Z,28.11
2022-08-24T16:12:12.720Z,28.00
2022-08-24T16:16:16.794Z,28.13
2022-08-24T16:20:24.596Z,27.84
2022-08-24T16:24:28.608Z,27.23
2022-08-24T16:28:36.042Z,28.20
2022-08-24T16:32:54.026Z,28.33
2022-08-24T16:36:56.714Z,28.77
2022-08-24T16:41:00.623Z,29.48
2022-08-24T16:45:04.604Z,29.64
2022-08-24T16:49:12.566Z,28.19
2022-08-24T16:53:14.301Z,29.27
2022-08-24T16:57:19.687Z,30.01
2022-08-24T17:01:21.293Z,29.20
2022-08-24T17:05:23.727Z,28.91
2022-08-24T17:09:25.292Z,29.90
2022-08-24T17:13:48.390Z,29.73
2022-08-24T17:17:56.302Z,29.29
2022-08-24T17:21:57.873Z,29.30
2022-08-24T17:26:00.230Z,29.25
2022-08-24T17:30:04.041Z,29.24
2022-08-24T17:34:08.023Z,28.72
2022-08-24T17:38:09.535Z,27.69
2022-08-24T17:42:33.736Z,27.22
2022-08-24T17:46:32.995Z,27.22
2022-08-24T17:50:35.695Z,27.00
2022-08-24T17:54:37.186Z,25.74
2022-08-24T17:58:58.654Z,25.69
2022-08-24T18:03:00.160Z,25.57
2022-08-24T18:07:06.651Z,24.73
2022-08-24T18:11:13.119Z,25.17
2022-08-24T18:15:14.716Z,24.72
2022-08-24T18:19:16.371Z,24.15
2022-08-24T18:23:21.220Z,24.17
2022-08-24T18:27:29.841Z,24.06
2022-08-24T18:31:31.712Z,23.96
2022-08-24T18:35:34.512Z,23.83
2022-08-24T18:39:36.550Z,23.53
2022-08-24T18:43:38.245Z,23.94
2022-08-24T18:47:40.111Z,24.01
2022-08-24T18:51:43.007Z,23.39
2022-08-24T18:55:46.302Z,23.58
2022-08-24T18:59:47.913Z,23.77
2022-08-24T19:03:50.366Z,23.11
2022-08-24T19:07:53.259Z,23.32
2022-08-24T19:11:54.830Z,23.38
2022-08-24T19:15:58.180Z,23.16
2022-08-24T19:19:59.728Z,22.96
2022-08-24T19:24:02.493Z,23.09
2022-08-24T19:28:06.246Z,22.54
2022-08-24T19:32:13.880Z,22.76
2022-08-24T19:36:23.811Z,22.90
2022-08-24T19:40:25.355Z,22.62
2022-08-24T19:44:51.999Z,22.69
2022-08-24T19:48:54.027Z,22.52
2022-08-24T19:52:58.498Z,22.64
2022-08-24T19:57:01.044Z,22.78
2022-08-24T20:01:11.598Z,22.22
2022-08-24T20:05:13.587Z,22.40
2022-08-24T20:09:15.119Z,22.39
2022-08-24T20:13:17.056Z,22.41
2022-08-24T20:17:18.517Z,22.23
2022-08-24T20:21:29.803Z,22.22
2022-08-24T20:25:33.882Z,22.41
2022-08-24T20:29:35.381Z,22.51
2022-08-24T20:33:36.971Z,22.34
2022-08-24T20:37:41.303Z,22.30
2022-08-24T20:41:42.761Z,22.41
2022-08-24T20:45:45.376Z,22.32
2022-08-24T20:49:47.899Z,21.86
2022-08-24T20:53:49.353Z,22.02
2022-08-24T20:57:55.881Z,22.10
2022-08-24T21:01:57.345Z,22.02
2022-08-24T21:05:59.330Z,21.89
2022-08-24T21:10:00.979Z,21.78
2022-08-24T21:14:06.023Z,21.71
2022-08-24T21:18:07.583Z,21.36
2022-08-24T21:22:09.489Z,21.55
2022-08-24T21:26:14.177Z,21.69
2022-08-24T21:30:19.543Z,21.76
2022-08-24T21:34:39.710Z,21.66
2022-08-24T21:38:44.701Z,21.55
2022-08-24T21:42:47.010Z,21.24
2022-08-24T21:46:50.458Z,21.33
2022-08-24T21:50:52.051Z,21.15
2022-08-24T21:54:56.289Z,21.15
2022-08-24T21:58:58.783Z,21.34
2022-08-24T22:03:00.501Z,20.97
2022-08-24T22:07:02.437Z,21.00
2022-08-24T22:11:05.100Z,21.08
2022-08-24T22:15:09.076Z,20.82
2022-08-24T22:19:11.790Z,21.05
2022-08-24T22:23:13.396Z,21.10
2022-08-24T22:27:14.876Z,21.01
2022-08-24T22:31:35.949Z,20.64
2022-08-24T22:35:44.765Z,20.80
2022-08-24T22:39:47.052Z,20.46
2022-08-24T22:44:07.918Z,20.62
2022-08-24T22:48:09.584Z,20.70
2022-08-24T22:52:12.981Z,20.54
2022-08-24T22:56:17.240Z,20.43
2022-08-24T23:00:19.035Z,20.73
2022-08-24T23:04:23.871Z,20.51
2022-08-24T23:08:25.384Z,20.17
2022-08-24T23:12:28.484Z,20.21
2022-08-24T23:16:32.098Z,20.45
2022-08-24T23:20:33.568Z,20.44
2022-08-24T23:24:35.902Z,20.34
2022-08-24T23:28:37.469Z,20.35
2022-08-24T23:32:40.118Z,20.41
2022-08-24T23:36:43.095Z,20.47
2022-08-24T23:40:44.764Z,19.97
2022-08-24T23:44:46.868Z,20.25
2022-08-24T23:48:55.463Z,20.40
2022-08-24T23:52:57.716Z,20.10
2022-08-24T23:56:59.186Z,20.11
